WEATHER

Warnervale Skycam

North West View

North West View

South West View

South West View

Mean Sea Level Pressure Analysis (Synoptic Chart)

Synoptic Chart

  • YSSY TAF

    TAF YSSY 122303Z 1300/1406 03018G28KT CAVOK FM130900 02015KT 9999 FEW015 FM131200 01010KT 9999 SCT015 FM132000 02010KT 9999 FEW015 BKN120 FM140000 04015KT 9999 -RA SCT025 BKN100 RMK T 24 25 24 22 Q 1019 1017 1015 1016

  • YSSY METAR

    TTF METAR YSSY 130230Z 04020KT CAVOK 25/13 Q1017 RMK RF00.0/000.0 NOSIG

Sydney Rainfall Radar

128 km Sydney Radar

Sydney Rainfall Radar

 

512 km Sydney Radar

Sydney Rainfall Radar 512km

 

Rainfall radar and satellite images obtained from the Bureau of Meteorology. All information provided on this page is for general information and should NOT be used for flight planning.